createdAt,value
2023-02-05T00:01:35.131Z,1.53
2023-02-05T00:04:02.332Z,1.48
2023-02-05T00:06:29.217Z,1.57
2023-02-05T00:08:57.580Z,1.63
2023-02-05T00:11:24.806Z,1.71
2023-02-05T00:13:51.955Z,1.84
2023-02-05T00:16:22.976Z,2.05
2023-02-05T00:18:50.403Z,2.16
2023-02-05T00:21:18.669Z,2.22
2023-02-05T00:23:46.558Z,2.21
2023-02-05T00:26:14.321Z,2.18
2023-02-05T00:28:42.138Z,2.19
2023-02-05T00:31:16.286Z,2.16
2023-02-05T00:33:44.216Z,2.07
2023-02-05T00:36:13.071Z,2.02
2023-02-05T00:38:41.151Z,2.09
2023-02-05T00:41:08.898Z,2.33
2023-02-05T00:43:35.880Z,2.56
2023-02-05T00:46:02.847Z,2.37
2023-02-05T00:48:29.917Z,2.34
2023-02-05T00:50:57.108Z,2.36
2023-02-05T00:53:26.985Z,2.42
2023-02-05T00:55:54.149Z,2.44
2023-02-05T00:58:21.655Z,2.19
2023-02-05T01:00:51.014Z,2.24
2023-02-05T01:03:19.428Z,2.08
2023-02-05T01:05:46.904Z,2.02
2023-02-05T01:08:14.861Z,2.12
2023-02-05T01:10:49.922Z,2.19
2023-02-05T01:13:18.734Z,2.31
2023-02-05T01:15:46.276Z,2.42
2023-02-05T01:18:13.583Z,2.58
2023-02-05T01:20:42.105Z,2.64
2023-02-05T01:23:10.037Z,2.76
2023-02-05T01:25:38.033Z,3.03
2023-02-05T01:28:06.822Z,2.89
2023-02-05T01:30:34.814Z,2.89
2023-02-05T01:33:02.958Z,2.95
2023-02-05T01:35:29.878Z,3.00
2023-02-05T01:37:56.956Z,3.12
2023-02-05T01:40:23.918Z,3.03
2023-02-05T01:42:50.944Z,3.23
2023-02-05T01:45:23.660Z,3.10
2023-02-05T01:47:57.180Z,3.22
2023-02-05T01:50:31.980Z,2.95
2023-02-05T01:53:03.460Z,2.72
2023-02-05T01:55:31.809Z,2.54
2023-02-05T01:58:00.540Z,2.43
2023-02-05T02:00:27.550Z,2.52
2023-02-05T02:02:54.504Z,2.54
2023-02-05T02:05:21.457Z,2.63
2023-02-05T02:07:48.496Z,2.79
2023-02-05T02:10:18.315Z,2.91
2023-02-05T02:12:47.910Z,2.96
2023-02-05T02:15:21.856Z,3.03
2023-02-05T02:18:17.621Z,3.13
2023-02-05T02:20:45.117Z,3.37
2023-02-05T02:23:15.006Z,3.41
2023-02-05T02:26:03.117Z,3.40
2023-02-05T02:28:36.060Z,3.59
2023-02-05T02:31:09.655Z,3.67
2023-02-05T02:33:42.721Z,3.45
2023-02-05T02:36:34.973Z,3.50
2023-02-05T02:39:34.271Z,3.37
2023-02-05T02:42:14.590Z,3.43
2023-02-05T02:44:47.888Z,3.26
2023-02-05T02:47:29.354Z,3.10
2023-02-05T02:50:35.366Z,3.02
2023-02-05T02:53:25.520Z,2.95
2023-02-05T02:55:55.954Z,2.96
2023-02-05T02:58:39.379Z,2.87
2023-02-05T03:01:09.110Z,2.88
2023-02-05T03:03:41.099Z,2.86
2023-02-05T03:06:11.912Z,2.94
2023-02-05T03:09:03.520Z,3.17
2023-02-05T03:11:30.615Z,3.30
2023-02-05T03:13:57.922Z,3.45
2023-02-05T03:16:27.233Z,3.81
2023-02-05T03:18:55.928Z,3.95
2023-02-05T03:21:39.781Z,3.96
2023-02-05T03:24:08.170Z,3.98
2023-02-05T03:26:36.232Z,3.98
2023-02-05T03:29:09.082Z,3.89
2023-02-05T03:31:40.656Z,3.84
2023-02-05T03:35:07.585Z,3.74
2023-02-05T03:38:19.149Z,3.40
2023-02-05T03:41:10.526Z,3.38
2023-02-05T03:43:39.986Z,3.50
2023-02-05T03:46:22.776Z,3.75
2023-02-05T03:49:44.375Z,3.76
2023-02-05T03:52:17.891Z,3.58
2023-02-05T03:54:59.593Z,3.54
2023-02-05T03:57:46.329Z,3.77
2023-02-05T04:00:14.220Z,3.73
2023-02-05T04:02:42.752Z,3.75
2023-02-05T04:05:09.705Z,3.58
2023-02-05T04:07:36.648Z,3.61
2023-02-05T04:10:03.892Z,3.64
2023-02-05T04:12:30.804Z,3.64
2023-02-05T04:14:57.772Z,3.63
2023-02-05T04:17:24.698Z,3.71
2023-02-05T04:19:51.584Z,3.72
2023-02-05T04:22:18.443Z,3.77
2023-02-05T04:24:45.336Z,3.95
2023-02-05T04:27:12.290Z,3.82
2023-02-05T04:29:39.248Z,3.67
2023-02-05T04:32:06.147Z,3.75
2023-02-05T04:34:33.032Z,3.74
2023-02-05T04:36:59.903Z,3.96
2023-02-05T04:39:27.825Z,3.79
2023-02-05T04:41:54.749Z,4.00
2023-02-05T04:44:21.753Z,3.86
2023-02-05T04:46:48.689Z,3.80
2023-02-05T04:49:16.494Z,3.73
2023-02-05T04:51:43.427Z,3.90
2023-02-05T04:54:10.455Z,4.01
2023-02-05T04:56:38.906Z,3.87
2023-02-05T04:59:05.832Z,3.73
2023-02-05T05:01:32.915Z,4.03
2023-02-05T05:03:59.796Z,3.97
2023-02-05T05:06:26.715Z,3.95
2023-02-05T05:08:54.788Z,4.02
2023-02-05T05:11:21.801Z,4.07
2023-02-05T05:13:52.240Z,3.98
2023-02-05T05:16:19.345Z,3.83
2023-02-05T05:18:46.330Z,3.86
2023-02-05T05:21:13.486Z,3.96
2023-02-05T05:23:40.389Z,3.93
2023-02-05T05:26:11.862Z,3.92
2023-02-05T05:28:39.315Z,3.94
2023-02-05T05:31:14.014Z,3.96
2023-02-05T05:33:41.011Z,3.94
2023-02-05T05:36:09.235Z,3.98
2023-02-05T05:38:36.147Z,4.09
2023-02-05T05:41:22.572Z,3.95
2023-02-05T05:43:52.184Z,3.89
2023-02-05T05:46:23.623Z,3.97
2023-02-05T05:48:56.652Z,3.87
2023-02-05T05:51:25.814Z,3.86
2023-02-05T05:53:53.146Z,3.98
2023-02-05T05:56:20.759Z,3.88
2023-02-05T05:58:48.795Z,3.88
2023-02-05T06:01:19.088Z,3.96
2023-02-05T06:03:46.126Z,3.93
2023-02-05T06:06:13.759Z,3.92
2023-02-05T06:08:41.031Z,3.99
2023-02-05T06:11:07.934Z,4.00
2023-02-05T06:13:34.959Z,4.09
2023-02-05T06:16:02.410Z,4.07
2023-02-05T06:18:29.855Z,3.95
2023-02-05T06:20:56.835Z,4.07
2023-02-05T06:23:24.059Z,4.04
2023-02-05T06:25:51.080Z,3.95
2023-02-05T06:28:18.104Z,3.98
2023-02-05T06:30:45.165Z,4.02
2023-02-05T06:33:12.782Z,4.04
2023-02-05T06:35:41.276Z,4.17
2023-02-05T06:38:09.287Z,4.34
2023-02-05T06:40:36.377Z,4.09
2023-02-05T06:43:03.581Z,4.16
2023-02-05T06:45:30.499Z,4.15
2023-02-05T06:47:58.259Z,4.09
2023-02-05T06:50:25.844Z,4.18
2023-02-05T06:52:53.057Z,4.08
2023-02-05T06:55:20.193Z,4.24
2023-02-05T06:57:47.077Z,4.41
2023-02-05T07:00:15.279Z,4.12
2023-02-05T07:02:42.388Z,4.21
2023-02-05T07:05:09.789Z,4.39
2023-02-05T07:07:36.888Z,4.46
2023-02-05T07:10:04.632Z,4.33
2023-02-05T07:12:32.095Z,4.57
2023-02-05T07:14:59.164Z,4.42
2023-02-05T07:17:26.340Z,4.37
2023-02-05T07:19:53.347Z,4.29
2023-02-05T07:22:20.316Z,4.26
2023-02-05T07:24:47.217Z,4.48
2023-02-05T07:27:14.160Z,4.32
2023-02-05T07:29:41.096Z,4.44
2023-02-05T07:32:08.087Z,4.43
2023-02-05T07:34:35.204Z,4.51
2023-02-05T07:37:02.209Z,4.73
2023-02-05T07:39:29.195Z,4.49
2023-02-05T07:41:56.127Z,4.34
2023-02-05T07:44:22.992Z,4.42
2023-02-05T07:46:50.103Z,4.55
2023-02-05T07:49:17.340Z,4.43
2023-02-05T07:51:44.337Z,4.53
2023-02-05T07:54:15.964Z,4.48
2023-02-05T07:56:43.189Z,4.55
2023-02-05T07:59:12.963Z,4.55
2023-02-05T08:01:40.034Z,4.77
2023-02-05T08:04:07.049Z,4.65
2023-02-05T08:06:34.931Z,4.69
2023-02-05T08:09:02.344Z,4.66
2023-02-05T08:11:30.713Z,4.63
2023-02-05T08:13:59.301Z,4.81
2023-02-05T08:16:26.292Z,4.89
2023-02-05T08:18:53.285Z,4.75
2023-02-05T08:21:21.786Z,4.82
2023-02-05T08:23:49.616Z,4.70
2023-02-05T08:26:18.164Z,4.70
2023-02-05T08:28:46.070Z,4.83
2023-02-05T08:31:17.377Z,4.65
2023-02-05T08:33:45.863Z,4.77
2023-02-05T08:36:12.845Z,4.81
2023-02-05T08:38:39.694Z,4.76
2023-02-05T08:41:12.725Z,4.86
2023-02-05T08:43:46.378Z,4.72
2023-02-05T08:46:19.175Z,4.96
2023-02-05T08:48:47.363Z,4.82
2023-02-05T08:51:15.887Z,4.77
2023-02-05T08:53:43.195Z,4.74
2023-02-05T08:56:10.745Z,4.80
2023-02-05T08:58:38.951Z,4.83
2023-02-05T09:01:17.114Z,4.79
2023-02-05T09:03:45.473Z,4.83
2023-02-05T09:06:15.833Z,4.94
2023-02-05T09:08:43.016Z,4.99
2023-02-05T09:11:10.051Z,4.83
2023-02-05T09:13:37.146Z,4.88
2023-02-05T09:16:04.449Z,4.90
2023-02-05T09:18:31.337Z,5.12
2023-02-05T09:20:58.280Z,4.96
2023-02-05T09:23:25.214Z,4.92
2023-02-05T09:25:52.331Z,4.96
2023-02-05T09:28:19.308Z,5.01
2023-02-05T09:30:46.866Z,5.03
2023-02-05T09:33:14.411Z,5.00
2023-02-05T09:35:42.157Z,5.14
2023-02-05T09:38:13.034Z,4.97
2023-02-05T09:41:05.529Z,4.94
2023-02-05T09:43:55.773Z,5.10
2023-02-05T09:47:05.613Z,4.98
2023-02-05T09:49:41.544Z,4.86
2023-02-05T09:52:20.133Z,4.84
2023-02-05T09:54:57.685Z,5.00
2023-02-05T09:57:36.372Z,4.82
2023-02-05T10:00:21.477Z,5.11
2023-02-05T10:03:18.630Z,4.93
2023-02-05T10:06:23.044Z,4.83
2023-02-05T10:09:04.829Z,5.03
2023-02-05T10:11:57.154Z,4.91
2023-02-05T10:15:08.458Z,5.14
2023-02-05T10:17:56.129Z,5.18
2023-02-05T10:20:33.834Z,5.16
2023-02-05T10:23:16.878Z,5.39
2023-02-05T10:26:25.257Z,5.27
2023-02-05T10:29:18.352Z,5.28
2023-02-05T10:32:32.816Z,5.28
2023-02-05T10:35:18.868Z,5.26
2023-02-05T10:37:52.809Z,5.47
2023-02-05T10:40:43.470Z,5.42
2023-02-05T10:43:30.186Z,5.26
2023-02-05T10:45:58.698Z,5.05
2023-02-05T10:48:48.881Z,5.29
2023-02-05T10:51:18.073Z,5.27
2023-02-05T10:53:45.011Z,5.15
2023-02-05T10:56:18.843Z,5.26
2023-02-05T10:58:59.226Z,5.17
2023-02-05T11:01:38.025Z,5.19
2023-02-05T11:04:14.189Z,5.43
2023-02-05T11:06:52.490Z,5.30
2023-02-05T11:09:25.485Z,5.32
2023-02-05T11:12:05.886Z,5.25
2023-02-05T11:14:39.950Z,5.27
2023-02-05T11:17:24.571Z,5.31
2023-02-05T11:19:57.208Z,5.47
2023-02-05T11:22:33.170Z,5.38
2023-02-05T11:25:27.091Z,5.23
2023-02-05T11:27:56.601Z,5.18
2023-02-05T11:30:53.243Z,5.34
2023-02-05T11:33:23.146Z,5.19
2023-02-05T11:36:03.118Z,5.30
2023-02-05T11:38:50.422Z,5.43
2023-02-05T11:41:52.020Z,5.51
2023-02-05T11:44:31.980Z,5.43
2023-02-05T11:47:01.602Z,5.47
2023-02-05T11:49:38.473Z,5.44
2023-02-05T11:52:13.520Z,5.53
2023-02-05T11:54:45.991Z,5.47
2023-02-05T11:57:21.678Z,5.53
2023-02-05T12:00:09.740Z,5.58
2023-02-05T12:02:42.066Z,5.62
2023-02-05T12:05:25.062Z,5.63
2023-02-05T12:08:19.728Z,5.70
2023-02-05T12:11:28.671Z,5.61
2023-02-05T12:14:18.906Z,5.61
2023-02-05T12:16:51.843Z,5.43
2023-02-05T12:19:50.282Z,5.46
2023-02-05T12:22:26.884Z,5.49
2023-02-05T12:25:50.292Z,5.74
2023-02-05T12:28:42.068Z,5.86
2023-02-05T12:31:49.903Z,5.81
2023-02-05T12:34:48.106Z,5.70
2023-02-05T12:37:36.349Z,5.65
2023-02-05T12:40:13.122Z,5.78
2023-02-05T12:43:27.417Z,5.77
2023-02-05T12:46:05.972Z,5.79
2023-02-05T12:48:54.192Z,5.72
2023-02-05T12:51:31.437Z,5.89
2023-02-05T12:54:35.076Z,6.13
2023-02-05T12:57:13.802Z,6.24
2023-02-05T12:59:51.961Z,6.06
2023-02-05T13:02:46.705Z,6.11
2023-02-05T13:05:24.923Z,6.18
2023-02-05T13:08:02.609Z,6.10
2023-02-05T13:10:54.380Z,6.28
2023-02-05T13:13:35.137Z,6.27
2023-02-05T13:16:09.649Z,6.26
2023-02-05T13:18:47.716Z,6.27
2023-02-05T13:21:37.851Z,6.15
2023-02-05T13:24:50.325Z,6.20
2023-02-05T13:27:51.106Z,6.10
2023-02-05T13:30:39.264Z,6.01
2023-02-05T13:33:08.733Z,6.01
2023-02-05T13:36:27.294Z,6.12
2023-02-05T13:39:34.603Z,6.15
2023-02-05T13:42:28.499Z,6.21
2023-02-05T13:45:11.213Z,6.09
2023-02-05T13:47:56.700Z,6.14
2023-02-05T13:51:10.892Z,6.28
2023-02-05T13:54:24.282Z,6.50
2023-02-05T13:57:36.234Z,6.32
2023-02-05T14:00:05.677Z,6.32
2023-02-05T14:02:44.513Z,6.45
2023-02-05T14:05:13.699Z,6.34
2023-02-05T14:07:50.904Z,6.19
2023-02-05T14:10:35.150Z,6.01
2023-02-05T14:13:32.574Z,5.95
2023-02-05T14:16:28.012Z,5.97
2023-02-05T14:19:01.097Z,6.06
2023-02-05T14:21:30.978Z,5.97
2023-02-05T14:24:03.612Z,6.11
2023-02-05T14:26:56.614Z,6.02
2023-02-05T14:29:45.090Z,6.05
2023-02-05T14:32:31.373Z,6.33
2023-02-05T14:35:32.488Z,6.08
2023-02-05T14:38:03.332Z,6.09
2023-02-05T14:40:38.332Z,6.11
2023-02-05T14:43:16.933Z,6.14
2023-02-05T14:45:50.490Z,6.12
2023-02-05T14:48:47.193Z,6.18
2023-02-05T14:51:28.289Z,6.33
2023-02-05T14:54:21.532Z,6.16
2023-02-05T14:56:54.937Z,6.14
2023-02-05T14:59:36.209Z,6.06
2023-02-05T15:02:03.164Z,6.14
2023-02-05T15:04:54.502Z,6.28
2023-02-05T15:07:26.261Z,6.35
2023-02-05T15:10:21.242Z,6.29
2023-02-05T15:13:09.547Z,6.41
2023-02-05T15:15:38.055Z,6.56
2023-02-05T15:18:22.025Z,6.70
2023-02-05T15:20:52.355Z,6.81
2023-02-05T15:23:30.798Z,6.61
2023-02-05T15:26:20.845Z,6.55
2023-02-05T15:28:57.996Z,6.70
2023-02-05T15:31:34.276Z,6.61
2023-02-05T15:34:30.997Z,6.61
2023-02-05T15:37:10.728Z,6.24
2023-02-05T15:39:43.258Z,6.27
2023-02-05T15:42:17.308Z,6.33
2023-02-05T15:44:44.241Z,6.42
2023-02-05T15:47:37.622Z,6.50
2023-02-05T15:50:05.235Z,6.40
2023-02-05T15:52:33.114Z,6.49
2023-02-05T15:55:11.538Z,6.49
2023-02-05T15:57:39.452Z,6.19
2023-02-05T16:00:10.341Z,6.03
2023-02-05T16:02:39.951Z,6.37
2023-02-05T16:05:23.118Z,6.19
2023-02-05T16:07:57.118Z,5.93
2023-02-05T16:10:30.179Z,6.22
2023-02-05T16:13:21.032Z,6.21
2023-02-05T16:16:01.084Z,5.83
2023-02-05T16:18:38.369Z,5.74
2023-02-05T16:21:30.400Z,5.70
2023-02-05T16:24:04.317Z,5.68
2023-02-05T16:26:46.904Z,5.59
2023-02-05T16:29:47.998Z,5.52
2023-02-05T16:32:39.375Z,5.60
2023-02-05T16:35:35.460Z,5.66
2023-02-05T16:38:08.793Z,5.61
2023-02-05T16:40:43.375Z,5.63
2023-02-05T16:43:25.315Z,5.46
2023-02-05T16:46:13.990Z,5.57
2023-02-05T16:48:54.022Z,5.62
2023-02-05T16:51:33.965Z,5.49
2023-02-05T16:54:27.497Z,5.47
2023-02-05T16:57:16.586Z,5.47
2023-02-05T17:00:13.398Z,5.57
2023-02-05T17:02:42.065Z,5.54
2023-02-05T17:05:38.382Z,5.42
2023-02-05T17:08:09.923Z,5.42
2023-02-05T17:10:59.451Z,5.44
2023-02-05T17:13:46.940Z,5.42
2023-02-05T17:16:31.850Z,5.36
2023-02-05T17:19:04.779Z,5.44
2023-02-05T17:21:36.631Z,5.50
2023-02-05T17:24:09.015Z,5.30
2023-02-05T17:26:40.904Z,5.34
2023-02-05T17:29:15.039Z,5.43
2023-02-05T17:31:44.072Z,5.28
2023-02-05T17:34:11.755Z,5.45
2023-02-05T17:36:38.654Z,5.54
2023-02-05T17:39:05.582Z,5.40
2023-02-05T17:41:55.410Z,5.41
2023-02-05T17:44:22.459Z,5.39
2023-02-05T17:46:49.626Z,5.57
2023-02-05T17:49:16.569Z,5.36
2023-02-05T17:51:43.867Z,5.42
2023-02-05T17:54:23.234Z,5.28
2023-02-05T17:56:51.176Z,5.40
2023-02-05T17:59:24.138Z,5.21
2023-02-05T18:01:52.285Z,5.17
2023-02-05T18:04:19.561Z,5.20
2023-02-05T18:06:49.881Z,5.07
2023-02-05T18:09:18.501Z,5.16
2023-02-05T18:11:49.935Z,5.03
2023-02-05T18:14:17.017Z,5.16
2023-02-05T18:16:45.367Z,5.11
2023-02-05T18:19:13.730Z,5.04
2023-02-05T18:21:47.184Z,5.05
2023-02-05T18:24:14.204Z,5.13
2023-02-05T18:26:43.958Z,4.97
2023-02-05T18:29:10.860Z,5.19
2023-02-05T18:31:42.509Z,5.05
2023-02-05T18:34:12.431Z,5.04
2023-02-05T18:36:39.353Z,5.00
2023-02-05T18:39:06.310Z,5.11
2023-02-05T18:41:36.672Z,5.11
2023-02-05T18:44:03.899Z,5.01
2023-02-05T18:46:31.040Z,5.09
2023-02-05T18:48:58.020Z,5.10
2023-02-05T18:51:25.154Z,5.02
2023-02-05T18:53:55.284Z,5.17
2023-02-05T18:56:26.022Z,5.03
2023-02-05T18:59:01.061Z,5.03
2023-02-05T19:01:30.768Z,4.97
2023-02-05T19:04:10.897Z,4.99
2023-02-05T19:06:40.932Z,5.02
2023-02-05T19:09:10.053Z,4.95
2023-02-05T19:11:41.431Z,5.05
2023-02-05T19:14:12.154Z,5.00
2023-02-05T19:16:41.546Z,4.90
2023-02-05T19:19:16.520Z,5.00
2023-02-05T19:21:45.002Z,4.99
2023-02-05T19:24:13.682Z,4.91
2023-02-05T19:26:44.721Z,4.96
2023-02-05T19:29:18.234Z,5.09
2023-02-05T19:31:45.702Z,5.00
2023-02-05T19:34:16.834Z,4.98
2023-02-05T19:36:46.987Z,4.91
2023-02-05T19:39:14.722Z,4.85
2023-02-05T19:41:45.921Z,4.94
2023-02-05T19:44:13.349Z,4.88
2023-02-05T19:46:48.620Z,4.80
2023-02-05T19:49:21.379Z,4.77
2023-02-05T19:51:55.065Z,4.87
2023-02-05T19:54:23.421Z,4.85
2023-02-05T19:56:50.712Z,4.77
2023-02-05T19:59:18.521Z,4.86
2023-02-05T20:01:46.617Z,4.93
2023-02-05T20:04:22.264Z,4.85
2023-02-05T20:06:49.491Z,4.83
2023-02-05T20:09:17.738Z,4.76
2023-02-05T20:11:48.219Z,4.78
2023-02-05T20:14:17.368Z,4.89
2023-02-05T20:16:47.464Z,4.79
2023-02-05T20:19:16.988Z,4.79
2023-02-05T20:21:45.404Z,4.67
2023-02-05T20:24:12.771Z,4.73
2023-02-05T20:26:39.992Z,4.85
2023-02-05T20:29:25.767Z,4.80
2023-02-05T20:31:53.398Z,4.72
2023-02-05T20:34:26.285Z,4.79
2023-02-05T20:36:56.159Z,4.62
2023-02-05T20:39:25.273Z,4.72
2023-02-05T20:41:52.477Z,4.77
2023-02-05T20:44:19.667Z,4.65
2023-02-05T20:46:46.719Z,4.61
2023-02-05T20:49:15.016Z,4.66
2023-02-05T20:51:42.777Z,4.59
2023-02-05T20:54:10.393Z,4.58
2023-02-05T20:56:38.078Z,4.65
2023-02-05T20:59:07.578Z,4.54
2023-02-05T21:01:40.317Z,4.57
2023-02-05T21:04:09.958Z,4.62
2023-02-05T21:06:39.832Z,4.58
2023-02-05T21:09:09.002Z,4.48
2023-02-05T21:11:36.615Z,4.51
2023-02-05T21:14:04.400Z,4.67
2023-02-05T21:16:33.652Z,4.47
2023-02-05T21:19:00.607Z,4.51
2023-02-05T21:21:31.096Z,4.41
2023-02-05T21:24:02.030Z,4.58
2023-02-05T21:26:35.864Z,4.41
2023-02-05T21:29:12.417Z,4.38
2023-02-05T21:31:44.685Z,4.36
2023-02-05T21:34:16.116Z,4.36
2023-02-05T21:36:43.285Z,4.49
2023-02-05T21:39:20.098Z,4.38
2023-02-05T21:41:47.629Z,4.53
2023-02-05T21:44:15.547Z,4.39
2023-02-05T21:46:43.097Z,4.40
2023-02-05T21:49:11.692Z,4.39
2023-02-05T21:51:39.911Z,4.53
2023-02-05T21:54:07.025Z,4.39
2023-02-05T21:56:42.536Z,4.36
2023-02-05T21:59:11.533Z,4.32
2023-02-05T22:01:39.770Z,4.38
2023-02-05T22:04:15.825Z,4.43
2023-02-05T22:06:43.835Z,4.26
2023-02-05T22:09:15.589Z,4.35
2023-02-05T22:11:43.997Z,4.28
2023-02-05T22:14:12.613Z,4.34
2023-02-05T22:16:40.127Z,4.19
2023-02-05T22:19:07.844Z,4.14
2023-02-05T22:21:42.097Z,4.26
2023-02-05T22:24:17.045Z,4.34
2023-02-05T22:26:46.804Z,4.19
2023-02-05T22:29:19.524Z,4.23
2023-02-05T22:31:51.440Z,4.36
2023-02-05T22:34:18.903Z,4.35
2023-02-05T22:36:45.963Z,4.29
2023-02-05T22:39:12.888Z,4.17
2023-02-05T22:41:49.203Z,4.23
2023-02-05T22:44:16.302Z,4.25
2023-02-05T22:46:44.450Z,4.13
2023-02-05T22:49:15.343Z,4.15
2023-02-05T22:51:43.146Z,4.14
2023-02-05T22:54:13.496Z,4.26
2023-02-05T22:56:40.369Z,4.13
2023-02-05T22:59:07.938Z,4.11
2023-02-05T23:01:38.239Z,4.07
2023-02-05T23:04:08.082Z,4.14
2023-02-05T23:06:38.674Z,4.34
2023-02-05T23:09:13.576Z,4.04
2023-02-05T23:11:41.941Z,4.11
2023-02-05T23:14:10.627Z,4.09
2023-02-05T23:16:41.420Z,4.02
2023-02-05T23:19:13.938Z,4.07
2023-02-05T23:21:40.915Z,4.17
2023-02-05T23:24:09.181Z,4.13
2023-02-05T23:26:41.812Z,4.15
2023-02-05T23:29:11.672Z,4.21
2023-02-05T23:31:38.721Z,4.30
2023-02-05T23:34:06.200Z,4.26
2023-02-05T23:36:33.522Z,4.13
2023-02-05T23:39:00.510Z,4.14
2023-02-05T23:41:37.099Z,4.07
2023-02-05T23:44:22.055Z,4.02
2023-02-05T23:46:50.688Z,4.01
2023-02-05T23:49:21.825Z,3.97
2023-02-05T23:51:51.070Z,3.94
2023-02-05T23:54:18.099Z,3.98
2023-02-05T23:56:45.611Z,3.97
2023-02-05T23:59:14.288Z,3.97
